createdAt,value
2023-03-28T00:00:01.855Z,8.20
2023-03-28T00:05:03.388Z,6.70
2023-03-28T00:10:05.808Z,12.35
2023-03-28T00:15:07.559Z,10.35
2023-03-28T00:20:10.647Z,8.30
2023-03-28T00:25:13.382Z,8.23
2023-03-28T00:30:14.932Z,6.40
2023-03-28T00:35:16.644Z,8.95
2023-03-28T00:40:18.193Z,8.88
2023-03-28T00:45:23.403Z,6.80
2023-03-28T00:50:27.636Z,7.32
2023-03-28T00:55:36.713Z,7.35
2023-03-28T01:00:41.400Z,7.37
2023-03-28T01:05:43.635Z,6.20
2023-03-28T01:10:45.497Z,7.25
2023-03-28T01:15:49.213Z,8.27
2023-03-28T01:20:51.605Z,8.23
2023-03-28T01:26:11.639Z,6.13
2023-03-28T01:31:31.650Z,9.02
2023-03-28T01:36:51.636Z,4.68
2023-03-28T01:42:04.493Z,8.40
2023-03-28T01:47:20.999Z,4.90
2023-03-28T01:52:22.442Z,9.00
2023-03-28T01:57:33.110Z,9.18
2023-03-28T02:02:40.677Z,5.65
2023-03-28T02:07:43.962Z,9.40
2023-03-28T02:12:50.873Z,4.70
2023-03-28T02:17:54.382Z,4.68
2023-03-28T02:23:00.891Z,6.75
2023-03-28T02:28:05.455Z,8.48
2023-03-28T02:33:09.724Z,4.43
2023-03-28T02:38:17.461Z,6.45
2023-03-28T02:43:18.881Z,11.02
2023-03-28T02:48:27.348Z,7.32
2023-03-28T02:53:47.368Z,6.05
2023-03-28T02:58:52.101Z,8.40
2023-03-28T03:03:54.435Z,6.13
2023-03-28T03:08:57.674Z,9.50
2023-03-28T03:14:01.710Z,6.65
2023-03-28T03:19:03.083Z,10.73
2023-03-28T03:24:04.785Z,7.72
2023-03-28T03:29:06.237Z,6.47
2023-03-28T03:34:07.772Z,6.57
2023-03-28T03:39:09.303Z,6.97
2023-03-28T03:44:10.880Z,5.57
2023-03-28T03:49:12.309Z,6.32
2023-03-28T03:54:13.837Z,8.35
2023-03-28T03:59:15.584Z,6.43
2023-03-28T04:04:17.471Z,7.55
2023-03-28T04:09:20.631Z,8.30
2023-03-28T04:14:22.171Z,4.95
2023-03-28T04:19:24.391Z,6.63
2023-03-28T04:24:25.783Z,6.03
2023-03-28T04:29:32.929Z,7.78
2023-03-28T04:34:37.046Z,8.60
2023-03-28T04:39:41.743Z,7.85
2023-03-28T04:44:43.208Z,5.00
2023-03-28T04:49:44.744Z,5.50
2023-03-28T04:54:46.205Z,8.65
2023-03-28T04:59:47.635Z,9.65
2023-03-28T05:04:49.011Z,8.60
2023-03-28T05:09:50.443Z,8.18
2023-03-28T05:14:51.928Z,7.65
2023-03-28T05:19:53.394Z,8.55
2023-03-28T05:24:54.783Z,8.23
2023-03-28T05:29:56.406Z,7.20
2023-03-28T05:34:57.774Z,9.48
2023-03-28T05:39:59.464Z,8.00
2023-03-28T05:45:00.973Z,6.72
2023-03-28T05:50:02.943Z,7.55
2023-03-28T05:55:04.682Z,8.93
2023-03-28T06:00:12.627Z,7.65
2023-03-28T06:05:14.151Z,7.85
2023-03-28T06:10:15.815Z,8.65
2023-03-28T06:15:17.508Z,5.82
2023-03-28T06:20:19.150Z,8.23
2023-03-28T06:25:20.726Z,7.03
2023-03-28T06:30:22.187Z,6.13
2023-03-28T06:35:23.640Z,8.93
2023-03-28T06:40:25.498Z,8.00
2023-03-28T06:45:26.933Z,7.60
2023-03-28T06:50:28.354Z,10.20
2023-03-28T06:55:29.850Z,9.52
2023-03-28T07:00:31.332Z,7.00
2023-03-28T07:05:37.667Z,5.95
2023-03-28T07:10:39.776Z,7.50
2023-03-28T07:15:41.221Z,7.25
2023-03-28T07:20:44.188Z,6.22
2023-03-28T07:25:47.183Z,8.77
2023-03-28T07:30:48.754Z,6.55
2023-03-28T07:35:50.496Z,7.38
2023-03-28T07:40:51.932Z,9.88
2023-03-28T07:45:59.382Z,6.72
2023-03-28T07:51:01.563Z,8.52
2023-03-28T07:56:03.636Z,8.10
2023-03-28T08:01:06.170Z,8.43
2023-03-28T08:06:17.066Z,7.85
2023-03-28T08:11:27.220Z,9.13
2023-03-28T08:16:28.962Z,7.22
2023-03-28T08:21:31.496Z,10.77
2023-03-28T08:26:32.994Z,11.43
2023-03-28T08:31:34.625Z,8.45
2023-03-28T08:36:36.962Z,10.48
2023-03-28T08:41:57.041Z,10.02
2023-03-28T08:47:02.900Z,9.50
2023-03-28T08:52:05.580Z,8.68
2023-03-28T08:57:07.798Z,10.13
2023-03-28T09:02:19.545Z,11.48
2023-03-28T09:07:28.021Z,12.52
2023-03-28T09:12:35.485Z,10.93
2023-03-28T09:17:36.901Z,14.02
2023-03-28T09:22:57.042Z,13.45
2023-03-28T09:33:03.260Z,11.77
2023-03-28T09:38:06.281Z,13.70
2023-03-28T09:43:26.741Z,11.77
2023-03-28T09:48:32.297Z,9.57
2023-03-28T09:53:37.876Z,11.27
2023-03-28T09:58:47.442Z,13.10
2023-03-28T10:03:54.182Z,11.02
2023-03-28T10:09:14.475Z,9.70
2023-03-28T10:14:34.499Z,11.80
2023-03-28T10:19:37.939Z,9.95
2023-03-28T10:24:40.762Z,8.65
2023-03-28T10:29:42.847Z,12.65
2023-03-28T10:34:57.585Z,8.48
2023-03-28T10:40:22.367Z,11.82
2023-03-28T10:45:43.082Z,9.27
2023-03-28T10:50:49.421Z,11.88
2023-03-28T10:56:14.421Z,13.20
2023-03-28T11:01:21.074Z,12.63
2023-03-28T11:06:25.702Z,10.13
2023-03-28T11:11:51.111Z,11.63
2023-03-28T11:17:04.578Z,12.13
2023-03-28T11:22:06.164Z,12.90
2023-03-28T11:27:27.891Z,10.35
2023-03-28T11:32:32.497Z,11.32
2023-03-28T11:37:40.021Z,15.77
2023-03-28T11:42:45.130Z,10.63
2023-03-28T11:47:54.212Z,12.13
2023-03-28T11:53:02.743Z,13.90
2023-03-28T11:58:15.540Z,13.68
2023-03-28T12:03:23.560Z,13.05
2023-03-28T12:08:39.208Z,11.90
2023-03-28T12:14:13.077Z,11.73
2023-03-28T12:19:17.294Z,10.55
2023-03-28T12:24:25.410Z,12.30
2023-03-28T12:29:48.065Z,11.02
2023-03-28T12:35:10.906Z,8.77
2023-03-28T12:40:20.112Z,9.80
2023-03-28T12:45:42.528Z,13.30
2023-03-28T12:50:50.879Z,10.30
2023-03-28T12:55:54.289Z,8.15
2023-03-28T13:00:59.838Z,9.40
2023-03-28T13:06:10.535Z,10.85
2023-03-28T13:11:30.649Z,9.35
2023-03-28T13:21:52.401Z,13.68
2023-03-28T13:26:53.830Z,13.77
2023-03-28T13:32:03.056Z,14.90
2023-03-28T13:37:21.987Z,14.75
2023-03-28T13:42:32.064Z,10.80
2023-03-28T13:47:38.616Z,11.00
2023-03-28T13:52:40.380Z,12.35
2023-03-28T13:57:41.929Z,10.65
2023-03-28T14:02:46.582Z,7.93
2023-03-28T14:07:48.355Z,9.10
2023-03-28T14:12:52.093Z,10.48
2023-03-28T14:17:54.415Z,11.52
2023-03-28T14:23:00.407Z,11.30
2023-03-28T14:28:07.345Z,9.43
2023-03-28T14:33:14.356Z,10.68
2023-03-28T14:38:28.046Z,9.75
2023-03-28T14:43:30.229Z,11.57
2023-03-28T14:48:32.187Z,10.90
2023-03-28T14:53:41.067Z,13.35
2023-03-28T14:58:43.819Z,10.43
2023-03-28T15:03:46.461Z,10.70
2023-03-28T15:08:49.200Z,11.10
2023-03-28T15:13:57.812Z,10.65
2023-03-28T15:19:07.281Z,10.40
2023-03-28T15:24:13.579Z,10.32
2023-03-28T15:29:16.051Z,11.43
2023-03-28T15:34:24.898Z,11.18
2023-03-28T15:39:27.870Z,8.43
2023-03-28T15:44:33.228Z,11.43
2023-03-28T15:49:35.439Z,10.77
2023-03-28T15:54:40.780Z,12.88
2023-03-28T15:59:48.428Z,9.15
2023-03-28T16:04:59.037Z,11.32
2023-03-28T16:10:00.773Z,10.90
2023-03-28T16:15:03.799Z,12.70
2023-03-28T16:20:15.699Z,15.00
2023-03-28T16:25:17.115Z,13.35
2023-03-28T16:30:26.547Z,13.27
2023-03-28T16:35:28.962Z,12.43
2023-03-28T16:40:33.162Z,12.35
2023-03-28T16:45:35.227Z,11.48
2023-03-28T16:50:37.016Z,14.70
2023-03-28T16:55:38.379Z,12.80
2023-03-28T17:00:40.463Z,13.98
2023-03-28T17:05:41.857Z,14.18
2023-03-28T17:10:43.879Z,12.13
2023-03-28T17:15:45.947Z,11.77
2023-03-28T17:20:48.461Z,13.40
2023-03-28T17:25:54.646Z,11.25
2023-03-28T17:30:57.067Z,13.73
2023-03-28T17:35:58.963Z,12.40
2023-03-28T17:41:01.045Z,12.02
2023-03-28T17:46:02.745Z,10.73
2023-03-28T17:51:04.603Z,13.05
2023-03-28T17:56:07.165Z,10.80
2023-03-28T18:01:12.370Z,11.93
2023-03-28T18:06:14.163Z,14.68
2023-03-28T18:11:17.728Z,13.48
2023-03-28T18:16:19.291Z,12.82
2023-03-28T18:21:21.520Z,12.48
2023-03-28T18:26:24.109Z,12.93
2023-03-28T18:31:28.367Z,14.50
2023-03-28T18:36:29.925Z,13.57
2023-03-28T18:41:31.776Z,12.20
2023-03-28T18:46:33.795Z,13.73
2023-03-28T18:51:36.675Z,12.27
2023-03-28T18:56:38.129Z,11.43
2023-03-28T19:01:42.312Z,13.43
2023-03-28T19:06:45.348Z,18.98
2023-03-28T19:11:49.668Z,15.10
2023-03-28T19:16:51.399Z,12.45
2023-03-28T19:21:52.952Z,15.00
2023-03-28T19:26:54.613Z,15.13
2023-03-28T19:31:56.046Z,15.75
2023-03-28T19:36:57.480Z,11.98
2023-03-28T19:41:59.958Z,11.15
2023-03-28T19:47:01.416Z,14.38
2023-03-28T19:52:04.678Z,13.63
2023-03-28T19:57:08.107Z,14.13
2023-03-28T20:02:10.465Z,15.63
2023-03-28T20:07:12.760Z,11.50
2023-03-28T20:12:14.957Z,15.82
2023-03-28T20:17:16.787Z,12.77
2023-03-28T20:22:20.154Z,10.98
2023-03-28T20:27:24.458Z,12.15
2023-03-28T20:32:25.925Z,11.93
2023-03-28T20:37:27.976Z,11.05
2023-03-28T20:42:30.164Z,10.43
2023-03-28T20:47:31.674Z,9.70
2023-03-28T20:52:37.441Z,11.02
2023-03-28T20:57:42.311Z,12.75
2023-03-28T21:02:45.533Z,8.77
2023-03-28T21:07:47.407Z,12.73
2023-03-28T21:12:50.431Z,8.48
2023-03-28T21:17:53.727Z,10.48
2023-03-28T21:22:55.349Z,12.48
2023-03-28T21:27:56.993Z,10.45
2023-03-28T21:33:02.168Z,11.25
2023-03-28T21:38:06.778Z,13.43
2023-03-28T21:43:08.165Z,14.52
2023-03-28T21:48:09.836Z,11.10
2023-03-28T21:53:11.378Z,10.20
2023-03-28T21:58:12.978Z,12.38
2023-03-28T22:03:14.536Z,10.18
2023-03-28T22:08:16.162Z,9.45
2023-03-28T22:13:17.527Z,10.25
2023-03-28T22:18:19.429Z,9.13
2023-03-28T22:23:24.119Z,10.43
2023-03-28T22:28:26.134Z,9.20
2023-03-28T22:33:32.070Z,9.80
2023-03-28T22:38:33.579Z,8.73
2023-03-28T22:43:35.057Z,7.75
2023-03-28T22:48:38.274Z,9.90
2023-03-28T22:53:39.836Z,7.85
2023-03-28T22:58:41.714Z,8.40
2023-03-28T23:03:43.537Z,8.63
2023-03-28T23:08:44.998Z,8.02
2023-03-28T23:13:46.610Z,9.35
2023-03-28T23:18:50.211Z,9.27
2023-03-28T23:23:52.302Z,9.10
2023-03-28T23:28:53.681Z,8.48
2023-03-28T23:33:55.072Z,8.48
2023-03-28T23:38:56.856Z,7.45
2023-03-28T23:43:58.287Z,9.63
2023-03-28T23:48:59.748Z,8.05
2023-03-28T23:54:01.320Z,11.43
2023-03-28T23:59:02.864Z,8.85
